createdAt,value
2023-09-16T00:00:24.497Z,13.09
2023-09-16T00:04:26.646Z,13.07
2023-09-16T00:08:29.013Z,13.08
2023-09-16T00:12:31.126Z,13.10
2023-09-16T00:16:33.202Z,13.09
2023-09-16T00:20:35.696Z,13.09
2023-09-16T00:24:38.777Z,13.04
2023-09-16T00:28:41.416Z,13.02
2023-09-16T00:32:44.384Z,12.99
2023-09-16T00:36:46.564Z,12.96
2023-09-16T00:40:48.711Z,12.95
2023-09-16T00:44:50.940Z,12.92
2023-09-16T00:48:53.128Z,12.91
2023-09-16T00:52:57.885Z,12.91
2023-09-16T00:57:02.459Z,12.84
2023-09-16T01:01:05.939Z,12.73
2023-09-16T01:05:18.410Z,12.56
2023-09-16T01:09:24.022Z,12.49
2023-09-16T01:13:27.169Z,12.41
2023-09-16T01:17:35.069Z,12.35
2023-09-16T01:21:37.389Z,12.25
2023-09-16T01:25:39.487Z,12.15
2023-09-16T01:29:42.027Z,12.06
2023-09-16T01:33:52.247Z,12.06
2023-09-16T01:37:54.736Z,12.07
2023-09-16T01:41:59.877Z,12.18
2023-09-16T01:46:02.125Z,12.24
2023-09-16T01:50:05.558Z,12.27
2023-09-16T01:54:08.798Z,12.29
2023-09-16T01:58:11.048Z,12.32
2023-09-16T02:02:13.117Z,12.32
2023-09-16T02:06:15.179Z,12.34
2023-09-16T02:10:17.580Z,12.29
2023-09-16T02:14:20.315Z,12.24
2023-09-16T02:18:22.368Z,12.21
2023-09-16T02:22:24.651Z,12.22
2023-09-16T02:26:26.722Z,12.27
2023-09-16T02:30:28.775Z,12.29
2023-09-16T02:34:33.058Z,12.20
2023-09-16T02:38:35.368Z,12.13
2023-09-16T02:42:37.626Z,12.09
2023-09-16T02:46:39.860Z,12.02
2023-09-16T02:50:42.000Z,11.90
2023-09-16T02:54:44.185Z,11.84
2023-09-16T02:58:46.467Z,11.83
2023-09-16T03:02:52.212Z,11.80
2023-09-16T03:06:54.615Z,11.69
2023-09-16T03:11:03.347Z,11.52
2023-09-16T03:15:07.939Z,11.48
2023-09-16T03:19:11.198Z,11.42
2023-09-16T03:23:13.795Z,11.44
2023-09-16T03:27:16.601Z,11.49
2023-09-16T03:31:18.788Z,11.53
2023-09-16T03:35:22.510Z,11.43
2023-09-16T03:39:25.441Z,11.35
2023-09-16T03:43:28.540Z,11.25
2023-09-16T03:47:30.712Z,11.29
2023-09-16T03:51:36.328Z,11.36
2023-09-16T03:55:39.035Z,11.40
2023-09-16T03:59:43.073Z,11.34
2023-09-16T04:03:45.387Z,11.22
2023-09-16T04:07:48.251Z,11.13
2023-09-16T04:11:50.978Z,11.07
2023-09-16T04:15:53.127Z,11.08
2023-09-16T04:19:55.248Z,11.09
2023-09-16T04:23:57.308Z,11.10
2023-09-16T04:28:00.331Z,11.21
2023-09-16T04:32:03.243Z,11.17
2023-09-16T04:36:07.282Z,11.10
2023-09-16T04:40:12.607Z,11.11
2023-09-16T04:44:14.828Z,11.11
2023-09-16T04:48:17.691Z,11.14
2023-09-16T04:52:19.971Z,11.14
2023-09-16T04:56:22.734Z,11.13
2023-09-16T05:00:34.308Z,11.20
2023-09-16T05:04:38.103Z,11.28
2023-09-16T05:08:40.436Z,11.36
2023-09-16T05:12:43.073Z,11.39
2023-09-16T05:16:45.265Z,11.46
2023-09-16T05:20:51.908Z,11.49
2023-09-16T05:24:54.689Z,11.55
2023-09-16T05:28:57.988Z,11.62
2023-09-16T05:33:03.334Z,11.63
2023-09-16T05:37:05.676Z,11.64
2023-09-16T05:41:08.095Z,11.81
2023-09-16T05:45:11.475Z,12.00
2023-09-16T05:49:14.504Z,12.15
2023-09-16T05:53:16.666Z,12.20
2023-09-16T05:57:19.055Z,12.30
2023-09-16T06:01:21.360Z,12.44
2023-09-16T06:05:24.057Z,12.55
2023-09-16T06:09:26.268Z,12.66
2023-09-16T06:13:28.354Z,12.79
2023-09-16T06:17:30.451Z,12.94
2023-09-16T06:21:33.614Z,13.09
2023-09-16T06:25:35.967Z,13.26
2023-09-16T06:29:38.477Z,14.00
2023-09-16T06:33:40.825Z,17.64
2023-09-16T06:37:42.915Z,20.06
2023-09-16T06:41:45.031Z,20.55
2023-09-16T06:45:50.976Z,19.83
2023-09-16T06:49:53.809Z,18.66
2023-09-16T06:53:55.860Z,17.73
2023-09-16T06:57:57.916Z,17.12
2023-09-16T07:02:00.092Z,16.65
2023-09-16T07:06:02.219Z,16.43
2023-09-16T07:10:04.712Z,16.28
2023-09-16T07:14:06.839Z,16.25
2023-09-16T07:18:08.937Z,16.24
2023-09-16T07:22:11.108Z,16.26
2023-09-16T07:26:13.270Z,16.29
2023-09-16T07:30:18.187Z,16.35
2023-09-16T07:34:22.005Z,16.42
2023-09-16T07:38:24.186Z,16.46
2023-09-16T07:42:26.474Z,16.55
2023-09-16T07:46:28.593Z,16.65
2023-09-16T07:50:30.697Z,16.72
2023-09-16T07:54:32.800Z,16.78
2023-09-16T07:58:34.888Z,16.84
2023-09-16T08:02:37.003Z,16.94
2023-09-16T08:06:39.175Z,17.03
2023-09-16T08:10:41.231Z,17.13
2023-09-16T08:14:43.274Z,17.23
2023-09-16T08:18:45.650Z,17.33
2023-09-16T08:22:48.150Z,17.43
2023-09-16T08:26:50.195Z,17.57
2023-09-16T08:30:52.405Z,17.63
2023-09-16T08:34:54.693Z,17.74
2023-09-16T08:38:56.752Z,17.85
2023-09-16T08:43:16.267Z,17.98
2023-09-16T08:47:28.914Z,18.11
2023-09-16T08:51:35.511Z,18.22
2023-09-16T08:55:37.878Z,18.28
2023-09-16T08:59:41.415Z,18.36
2023-09-16T09:03:43.557Z,18.48
2023-09-16T09:07:45.910Z,18.55
2023-09-16T09:11:48.839Z,18.65
2023-09-16T09:15:56.397Z,18.71
2023-09-16T09:19:58.862Z,18.83
2023-09-16T09:24:00.904Z,18.94
2023-09-16T09:28:04.206Z,19.07
2023-09-16T09:32:06.607Z,19.17
2023-09-16T09:36:28.555Z,19.27
2023-09-16T09:40:30.625Z,19.39
2023-09-16T09:44:33.635Z,19.51
2023-09-16T09:48:38.366Z,19.63
2023-09-16T09:52:46.110Z,19.70
2023-09-16T09:56:48.315Z,19.83
2023-09-16T10:00:52.121Z,19.96
2023-09-16T10:05:03.974Z,20.07
2023-09-16T10:09:06.187Z,20.15
2023-09-16T10:13:09.406Z,20.21
2023-09-16T10:17:13.889Z,20.30
2023-09-16T10:21:16.357Z,20.42
2023-09-16T10:25:20.020Z,20.52
2023-09-16T10:29:23.189Z,20.60
2023-09-16T10:33:26.099Z,20.76
2023-09-16T10:37:29.025Z,20.89
2023-09-16T10:41:32.859Z,20.98
2023-09-16T10:45:35.432Z,21.07
2023-09-16T10:49:37.680Z,21.19
2023-09-16T10:53:41.854Z,21.20
2023-09-16T10:57:59.158Z,21.29
2023-09-16T11:02:37.313Z,21.40
2023-09-16T11:06:39.513Z,21.44
2023-09-16T11:10:42.068Z,21.55
2023-09-16T11:14:45.017Z,21.68
2023-09-16T11:18:50.418Z,21.75
2023-09-16T11:22:52.850Z,21.55
2023-09-16T11:26:57.452Z,21.62
2023-09-16T11:31:05.643Z,21.80
2023-09-16T11:35:07.955Z,21.97
2023-09-16T11:39:11.318Z,22.06
2023-09-16T11:43:13.437Z,22.25
2023-09-16T11:47:17.709Z,22.37
2023-09-16T11:51:22.727Z,22.51
2023-09-16T11:55:28.023Z,22.64
2023-09-16T11:59:30.198Z,22.71
2023-09-16T12:03:32.394Z,22.83
2023-09-16T12:07:36.786Z,22.90
2023-09-16T12:11:39.364Z,22.97
2023-09-16T12:15:41.444Z,23.01
2023-09-16T12:19:53.719Z,23.10
2023-09-16T12:23:55.868Z,23.20
2023-09-16T12:27:58.202Z,23.28
2023-09-16T12:32:19.241Z,23.35
2023-09-16T12:36:25.858Z,23.41
2023-09-16T12:40:28.056Z,23.42
2023-09-16T12:44:32.301Z,23.46
2023-09-16T12:48:35.505Z,23.54
2023-09-16T12:52:37.645Z,23.61
2023-09-16T12:56:49.006Z,23.70
2023-09-16T13:00:52.542Z,23.76
2023-09-16T13:05:18.329Z,23.83
2023-09-16T13:09:21.051Z,23.90
2023-09-16T13:13:26.432Z,23.98
2023-09-16T13:17:28.825Z,24.08
2023-09-16T13:21:32.539Z,24.12
2023-09-16T13:25:41.627Z,24.16
2023-09-16T13:29:43.734Z,24.26
2023-09-16T13:34:05.167Z,24.33
2023-09-16T13:38:10.005Z,24.30
2023-09-16T13:42:12.707Z,24.34
2023-09-16T13:46:14.965Z,24.38
2023-09-16T13:50:21.973Z,24.43
2023-09-16T13:54:24.674Z,24.52
2023-09-16T13:58:27.547Z,24.51
2023-09-16T14:02:29.749Z,24.54
2023-09-16T14:06:31.809Z,24.49
2023-09-16T14:10:33.976Z,24.50
2023-09-16T14:14:36.016Z,24.54
2023-09-16T14:18:38.159Z,24.50
2023-09-16T14:22:40.283Z,24.62
2023-09-16T14:26:42.303Z,24.71
2023-09-16T14:30:44.335Z,24.70
2023-09-16T14:34:46.361Z,24.66
2023-09-16T14:38:49.998Z,24.66
2023-09-16T14:42:52.393Z,24.69
2023-09-16T14:46:56.373Z,24.71
2023-09-16T14:50:59.489Z,24.71
2023-09-16T14:55:06.948Z,24.71
2023-09-16T14:59:10.474Z,24.68
2023-09-16T15:03:12.559Z,24.65
2023-09-16T15:07:14.646Z,24.64
2023-09-16T15:11:16.757Z,24.68
2023-09-16T15:15:18.917Z,24.69
2023-09-16T15:19:20.960Z,24.67
2023-09-16T15:23:23.128Z,24.66
2023-09-16T15:27:25.230Z,24.67
2023-09-16T15:31:27.595Z,24.67
2023-09-16T15:35:33.619Z,24.65
2023-09-16T15:39:35.813Z,24.57
2023-09-16T15:43:37.886Z,24.53
2023-09-16T15:47:40.822Z,24.53
2023-09-16T15:51:42.880Z,24.50
2023-09-16T15:55:47.137Z,24.41
2023-09-16T15:59:49.224Z,24.34
2023-09-16T16:03:51.509Z,24.27
2023-09-16T16:07:53.861Z,24.18
2023-09-16T16:11:55.913Z,24.10
2023-09-16T16:15:58.368Z,24.03
2023-09-16T16:20:00.598Z,23.97
2023-09-16T16:24:02.661Z,23.90
2023-09-16T16:28:05.516Z,23.79
2023-09-16T16:32:07.597Z,23.71
2023-09-16T16:36:09.806Z,23.61
2023-09-16T16:40:11.906Z,23.53
2023-09-16T16:44:14.019Z,23.47
2023-09-16T16:48:16.107Z,23.37
2023-09-16T16:52:19.523Z,23.27
2023-09-16T16:56:21.635Z,23.16
2023-09-16T17:00:23.756Z,23.10
2023-09-16T17:04:25.918Z,23.01
2023-09-16T17:08:28.020Z,22.94
2023-09-16T17:12:30.028Z,22.79
2023-09-16T17:16:32.591Z,22.65
2023-09-16T17:20:34.958Z,22.50
2023-09-16T17:24:38.347Z,22.42
2023-09-16T17:28:40.425Z,22.32
2023-09-16T17:32:42.664Z,22.22
2023-09-16T17:36:44.932Z,22.12
2023-09-16T17:40:47.205Z,22.07
2023-09-16T17:44:49.355Z,22.02
2023-09-16T17:48:51.592Z,21.98
2023-09-16T17:52:53.693Z,21.93
2023-09-16T17:56:55.737Z,21.83
2023-09-16T18:00:58.008Z,21.74
2023-09-16T18:05:00.961Z,21.70
2023-09-16T18:09:03.198Z,21.66
2023-09-16T18:13:05.738Z,21.59
2023-09-16T18:17:08.011Z,21.53
2023-09-16T18:21:11.562Z,21.45
2023-09-16T18:25:13.939Z,21.33
2023-09-16T18:29:16.433Z,21.20
2023-09-16T18:33:22.005Z,21.14
2023-09-16T18:37:24.092Z,21.13
2023-09-16T18:41:26.179Z,21.10
2023-09-16T18:45:28.769Z,21.05
2023-09-16T18:49:32.873Z,20.96
2023-09-16T18:53:35.125Z,20.92
2023-09-16T18:57:38.047Z,20.85
2023-09-16T19:01:40.184Z,20.78
2023-09-16T19:05:42.269Z,20.76
2023-09-16T19:09:44.353Z,20.71
2023-09-16T19:13:46.754Z,20.66
2023-09-16T19:17:48.834Z,20.61
2023-09-16T19:21:51.784Z,20.57
2023-09-16T19:25:54.010Z,20.46
2023-09-16T19:29:56.106Z,20.39
2023-09-16T19:33:58.549Z,20.34
2023-09-16T19:38:00.771Z,20.28
2023-09-16T19:42:02.960Z,20.26
2023-09-16T19:46:09.296Z,20.26
2023-09-16T19:50:11.538Z,20.21
2023-09-16T19:54:13.571Z,20.14
2023-09-16T19:58:15.680Z,19.95
2023-09-16T20:02:17.843Z,19.90
2023-09-16T20:06:20.411Z,19.86
2023-09-16T20:10:22.649Z,19.85
2023-09-16T20:14:25.719Z,19.87
2023-09-16T20:18:27.885Z,19.86
2023-09-16T20:22:29.995Z,19.81
2023-09-16T20:26:32.200Z,19.77
2023-09-16T20:30:34.331Z,19.77
2023-09-16T20:34:36.487Z,19.73
2023-09-16T20:38:38.635Z,19.69
2023-09-16T20:42:40.857Z,19.69
2023-09-16T20:46:43.079Z,19.65
2023-09-16T20:50:45.304Z,19.61
2023-09-16T20:54:47.538Z,19.58
2023-09-16T20:58:49.675Z,19.55
2023-09-16T21:02:51.846Z,19.54
2023-09-16T21:06:53.961Z,19.46
2023-09-16T21:10:56.015Z,19.43
2023-09-16T21:14:58.082Z,19.37
2023-09-16T21:19:00.434Z,19.37
2023-09-16T21:23:02.490Z,19.34
2023-09-16T21:27:04.944Z,19.13
2023-09-16T21:31:07.441Z,18.93
2023-09-16T21:35:09.601Z,18.90
2023-09-16T21:39:11.972Z,18.85
2023-09-16T21:43:14.835Z,18.76
2023-09-16T21:47:17.113Z,18.79
2023-09-16T21:51:19.190Z,18.86
2023-09-16T21:55:21.531Z,18.92
2023-09-16T21:59:24.397Z,18.89
2023-09-16T22:03:26.613Z,18.85
2023-09-16T22:07:28.805Z,18.77
2023-09-16T22:11:31.203Z,18.64
2023-09-16T22:15:35.068Z,18.39
2023-09-16T22:19:37.180Z,18.27
2023-09-16T22:23:39.273Z,18.25
2023-09-16T22:27:41.326Z,18.32
2023-09-16T22:31:43.564Z,18.38
2023-09-16T22:35:45.649Z,18.41
2023-09-16T22:39:56.652Z,18.44
2023-09-16T22:43:59.470Z,18.41
2023-09-16T22:48:01.593Z,18.44
2023-09-16T22:52:04.112Z,18.40
2023-09-16T22:56:06.206Z,18.39
2023-09-16T23:00:09.695Z,18.35
2023-09-16T23:04:11.850Z,18.22
2023-09-16T23:08:13.963Z,18.03
2023-09-16T23:12:16.012Z,17.94
2023-09-16T23:16:18.242Z,17.90
2023-09-16T23:20:20.533Z,17.91
2023-09-16T23:24:23.040Z,17.87
2023-09-16T23:28:25.145Z,17.87
2023-09-16T23:32:27.317Z,17.90
2023-09-16T23:36:29.460Z,17.79
2023-09-16T23:40:31.609Z,17.75
2023-09-16T23:44:33.699Z,17.70
2023-09-16T23:48:35.823Z,17.72
2023-09-16T23:52:38.267Z,17.68
2023-09-16T23:56:40.411Z,17.61
